KOAJ/OAJ METAR and TAF weather

Enter ICAO airport designator
Station Type Date Time Source
KOAJ METAR 2020/07/09 06:56 UTC NOAA

KOAJ 090656Z AUTO 02006KT 10SM BKN005 24/23 A2982 RMK AO2 CIG 004V008 SLP101 T02390233 PNO $


Station Type Date Time Source
KOAJ Decoded METAR 2020/07/09 06:56 UTC NOAA

Jacksonville, Albert J Ellis Airport, NC, United States (KOAJ) 34-50N 077-37W
Jul 09, 2020 - 02:56 AM EDT / 2020.07.09 0656 UTC
Wind: from the NNE (020 degrees) at 7 MPH (6 KT):0
Visibility: 10 mile(s):0
Sky conditions: mostly cloudy
Temperature: 75.0 F (23.9 C)
Dew Point: 73.9 F (23.3 C)
Relative Humidity: 96%
Pressure (altimeter): 29.82 in. Hg (1009 hPa)
ob: KOAJ 090656Z AUTO 02006KT 10SM BKN005 24/23 A2982 RMK AO2 CIG 004V008 SLP101 T02390233 PNO
cycle: 7

Station Type Date Time Source
KOAJ TAF 2020/07/09 06:21 UTC NOAA

TAF KOAJ 090615Z 0906/1006 01006KT P6SM VCSH BKN005
FM091400 36009KT P6SM VCSH BKN015
FM091600 36009KT 6SM -SHRA BKN020
FM091800 36008KT 6SM -SHRA BKN045
FM100000 32003KT P6SM BKN120
AMD LTD TO CLD VIS AND WIND

Example: see airport list